Time;durP1;ratioP1;P1;durP2;ratioP2;P2;SDS_P1;SDS_P2;PMS_P1;PMS_P2;Temp;Humidity;BMP_temperature;BMP_pressure;BME280_temperature;BME280_humidity;BME280_pressure;Samples;Min_cycle;Max_cycle;Signal;HPM_P1;HPM_P2
2023/08/27 00:00:38;;;;;;;10.77;5.85;;;;;;;25.06;68.62;99823.00;5108292;28;20039;-30
2023/08/27 00:03:04;;;;;;;8.73;5.72;;;;;;;24.82;70.07;99816.09;5108776;28;20015;-30
2023/08/27 00:05:32;;;;;;;13.45;6.95;;;;;;;24.54;71.62;99820.22;5108267;28;20042;-30
2023/08/27 00:07:58;;;;;;;9.55;6.00;;;;;;;24.68;71.43;99829.06;5108078;28;20028;-29
2023/08/27 00:10:23;;;;;;;8.35;5.65;;;;;;;24.78;70.50;99826.03;5108080;28;20020;-32
2023/08/27 00:12:48;;;;;;;13.95;8.80;;;;;;;24.78;70.11;99827.97;5108039;28;20020;-29
2023/08/27 00:15:14;;;;;;;23.38;14.80;;;;;;;24.74;70.57;99827.78;5108308;28;20054;-30
2023/08/27 00:17:39;;;;;;;13.07;7.50;;;;;;;24.42;70.83;99824.38;5107971;28;20026;-30
2023/08/27 00:20:10;;;;;;;12.05;7.10;;;;;;;24.20;71.95;99821.75;5108351;28;20015;-30
2023/08/27 00:22:39;;;;;;;10.43;7.50;;;;;;;24.17;72.72;99819.63;5108218;28;20051;-29
2023/08/27 00:25:05;;;;;;;10.50;7.32;;;;;;;24.27;70.42;99827.50;5108197;28;20511;-29
2023/08/27 00:27:36;;;;;;;13.02;7.57;;;;;;;24.35;71.04;99824.00;5107917;27;20401;-31
2023/08/27 00:30:04;;;;;;;13.13;7.03;;;;;;;24.49;69.92;99821.16;5107512;28;20500;-30
2023/08/27 00:32:33;;;;;;;13.18;7.85;;;;;;;24.46;69.13;99821.81;5108041;28;20020;-30
2023/08/27 00:34:59;;;;;;;10.02;7.30;;;;;;;24.60;68.33;99827.13;5107725;28;20073;-29
2023/08/27 00:37:24;;;;;;;10.30;7.60;;;;;;;24.27;69.88;99824.78;5107285;28;20056;-29
2023/08/27 00:39:50;;;;;;;9.38;7.47;;;;;;;24.41;68.96;99824.66;5107423;28;20098;-30
2023/08/27 00:42:15;;;;;;;14.05;7.63;;;;;;;24.40;69.23;99821.16;5107542;28;20072;-29
2023/08/27 00:44:41;;;;;;;10.70;7.65;;;;;;;24.44;67.96;99830.31;5107598;28;20028;-29
2023/08/27 00:47:07;;;;;;;11.25;7.40;;;;;;;24.39;67.82;99833.16;5107022;28;20054;-31
2023/08/27 00:49:32;;;;;;;8.80;7.05;;;;;;;24.42;67.18;99824.38;5107211;28;20511;-29
2023/08/27 00:52:00;;;;;;;9.88;7.57;;;;;;;24.45;67.33;99826.44;5107182;28;20729;-30
2023/08/27 00:54:26;;;;;;;;;;;;;;;24.08;69.29;99822.34;5107719;28;20051;-29
2023/08/27 00:56:51;;;;;;;9.80;6.85;;;;;;;23.91;70.02;99817.63;5107214;28;19947;-29
2023/08/27 00:59:23;;;;;;;9.15;6.68;;;;;;;24.05;70.17;99818.31;5107393;28;20039;-29
2023/08/27 01:01:48;;;;;;;10.75;6.45;;;;;;;24.09;69.96;99815.78;5106978;28;20069;-29
2023/08/27 01:04:16;;;;;;;8.98;6.00;;;;;;;24.08;70.14;99814.16;5107438;28;20024;-30
2023/08/27 01:06:41;;;;;;;9.80;6.57;;;;;;;24.16;69.30;99807.16;5107263;28;20027;-29
2023/08/27 01:09:20;;;;;;;9.57;6.18;;;;;;;23.94;69.97;99795.19;5105701;28;20035;-29
2023/08/27 01:11:57;;;;;;;10.15;6.90;;;;;;;24.18;69.77;99804.91;5107180;28;20027;-30
2023/08/27 01:14:24;;;;;;;9.15;6.40;;;;;;;24.11;69.84;99810.81;5106884;28;20031;-29
2023/08/27 01:16:58;;;;;;;9.85;6.18;;;;;;;24.10;69.71;99798.31;5107152;28;20031;-29
2023/08/27 01:19:24;;;;;;;8.15;5.93;;;;;;;23.99;69.83;99791.56;5106893;28;20522;-31
2023/08/27 01:21:50;;;;;;;9.88;6.55;;;;;;;24.02;70.26;99794.44;5106864;28;20020;-33
2023/08/27 01:24:15;;;;;;;9.30;6.35;;;;;;;24.10;69.28;99786.63;5106638;28;20049;-29
2023/08/27 01:26:56;;;;;;;9.15;6.30;;;;;;;24.04;69.99;99794.13;5106751;28;20024;-29
2023/08/27 01:29:40;;;;;;;8.93;6.43;;;;;;;23.95;68.70;99787.84;5106934;28;20503;-32
2023/08/27 01:32:28;;;;;;;8.10;6.55;;;;;;;24.18;67.62;99804.91;5106933;28;20525;-29
2023/08/27 01:34:54;;;;;;;11.07;6.47;;;;;;;23.99;68.82;99803.25;5106466;28;20030;-30
2023/08/27 01:37:20;;;;;;;8.52;6.22;;;;;;;23.76;69.50;99793.50;5106601;28;20027;-31
2023/08/27 01:39:45;;;;;;;10.40;6.90;;;;;;;23.72;69.99;99798.78;5106308;28;20084;-29
2023/08/27 01:42:12;;;;;;;10.15;6.90;;;;;;;23.66;70.61;99800.03;5106827;28;20427;-30
2023/08/27 01:44:37;;;;;;;9.98;6.50;;;;;;;23.76;71.13;99788.06;5106551;28;20029;-29
2023/08/27 01:47:04;;;;;;;11.50;7.88;;;;;;;23.80;71.05;99799.94;5106336;28;20051;-29
2023/08/27 01:49:31;;;;;;;8.98;6.00;;;;;;;23.98;70.69;99793.44;5106213;28;20034;-29
2023/08/27 01:51:57;;;;;;;10.70;6.70;;;;;;;23.93;70.32;99792.81;5106189;28;20633;-29
2023/08/27 01:54:22;;;;;;;8.75;6.35;;;;;;;23.99;70.73;99794.28;5106196;28;20518;-30
2023/08/27 01:56:48;;;;;;;9.30;6.30;;;;;;;24.01;70.87;99795.56;5106187;28;20027;-29
2023/08/27 01:59:13;;;;;;;10.25;6.45;;;;;;;23.94;70.67;99795.19;5105914;28;20031;-29
2023/08/27 02:01:39;;;;;;;11.23;6.75;;;;;;;24.15;69.73;99789.19;5105979;28;20027;-31
2023/08/27 02:04:04;;;;;;;10.50;7.22;;;;;;;24.09;70.31;99795.88;5106140;28;20138;-29
2023/08/27 02:06:30;;;;;;;11.18;6.97;;;;;;;24.14;70.42;99793.03;5105884;28;20456;-29
2023/08/27 02:08:56;;;;;;;13.98;7.65;;;;;;;23.99;70.84;99784.19;5105499;28;20050;-29
2023/08/27 02:11:21;;;;;;;10.23;7.13;;;;;;;23.92;70.01;99786.53;5105975;28;20030;-30
2023/08/27 02:13:46;;;;;;;14.30;8.90;;;;;;;23.90;70.09;99782.53;5105215;28;20499;-29
2023/08/27 02:16:12;;;;;;;18.85;9.55;;;;;;;23.91;71.03;99787.69;5105671;28;20072;-30
2023/08/27 02:18:37;;;;;;;16.73;10.07;;;;;;;24.09;70.50;99782.28;5105805;28;20038;-29
2023/08/27 02:21:03;;;;;;;14.00;8.75;;;;;;;23.90;70.54;99782.53;5105836;28;20038;-29
2023/08/27 02:23:28;;;;;;;14.48;9.30;;;;;;;24.14;70.45;99782.94;5105926;28;20027;-31
2023/08/27 02:25:53;;;;;;;17.05;9.88;;;;;;;24.05;69.97;99782.91;5105601;28;20027;-29
2023/08/27 02:28:19;;;;;;;25.08;11.07;;;;;;;24.01;70.38;99784.66;5105696;28;20665;-31
2023/08/27 02:30:55;;;;;;;22.00;9.88;;;;;;;24.10;70.49;99786.63;5105733;28;20019;-30
2023/08/27 02:33:21;;;;;;;16.85;9.05;;;;;;;24.25;69.66;99775.25;5105350;28;20503;-31
2023/08/27 02:35:46;;;;;;;23.00;10.20;;;;;;;24.16;69.70;99780.69;5105455;28;20022;-29
2023/08/27 02:38:12;;;;;;;22.38;9.57;;;;;;;24.05;69.82;99769.28;5105517;28;20080;-31
2023/08/27 02:40:39;;;;;;;19.20;9.70;;;;;;;23.69;70.83;99766.72;5105776;28;20024;-29
2023/08/27 02:43:04;;;;;;;13.65;8.88;;;;;;;23.74;71.43;99773.94;5105343;28;20078;-29
2023/08/27 02:45:32;;;;;;;18.55;9.55;;;;;;;23.71;72.03;99796.38;5105157;28;20457;-30
2023/08/27 02:47:57;;;;;;;;;;;;;;;23.69;71.81;99793.16;5105917;28;20043;-30
2023/08/27 02:50:23;;;;;;;12.75;8.73;;;;;;;23.58;71.41;99798.88;5105310;28;19915;-29
2023/08/27 02:52:48;;;;;;;13.32;8.50;;;;;;;23.73;70.73;99784.03;5105329;28;20024;-29
2023/08/27 02:55:14;;;;;;;14.70;9.38;;;;;;;23.86;71.54;99788.63;5105464;28;20023;-29
2023/08/27 02:57:39;;;;;;;15.25;9.35;;;;;;;23.65;71.94;99795.69;5105471;28;20093;-30
2023/08/27 03:00:05;;;;;;;14.27;8.73;;;;;;;23.75;71.54;99797.34;5105059;28;20106;-29
2023/08/27 03:02:31;;;;;;;12.68;8.68;;;;;;;23.41;72.77;99796.03;5105383;28;20659;-29
2023/08/27 03:05:01;;;;;;;16.10;10.10;;;;;;;23.48;71.72;99788.25;5105715;28;20016;-29
2023/08/27 03:07:26;;;;;;;14.45;8.85;;;;;;;23.35;72.42;99795.34;5105061;28;20034;-30
2023/08/27 03:09:52;;;;;;;12.38;7.63;;;;;;;23.13;72.74;99803.53;5105064;28;20028;-29
2023/08/27 03:12:17;;;;;;;11.23;8.02;;;;;;;22.75;74.51;99793.78;5105364;28;20032;-30
2023/08/27 03:14:43;;;;;;;17.65;10.52;;;;;;;22.56;77.33;99801.28;5105317;28;20024;-32
2023/08/27 03:17:08;;;;;;;12.82;9.52;;;;;;;22.82;75.87;99790.63;5105480;28;20066;-34
2023/08/27 03:19:34;;;;;;;12.65;8.90;;;;;;;22.89;76.35;99782.06;5106195;28;20431;-30
2023/08/27 03:22:00;;;;;;;13.70;8.73;;;;;;;22.81;76.62;99798.00;5108994;28;20024;-29
2023/08/27 03:24:25;;;;;;;13.88;8.48;;;;;;;22.85;76.45;99803.63;5109141;28;20016;-31
2023/08/27 03:26:51;;;;;;;9.80;7.80;;;;;;;22.84;77.21;99797.38;5109194;28;20384;-29
2023/08/27 03:29:16;;;;;;;10.77;7.85;;;;;;;23.14;76.28;99800.50;5109084;28;20019;-29
2023/08/27 03:31:42;;;;;;;11.43;8.05;;;;;;;23.21;75.70;99802.78;5107946;28;20493;-29
2023/08/27 03:34:07;;;;;;;9.95;7.45;;;;;;;23.18;75.90;99804.22;5109341;27;20023;-32
2023/08/27 03:36:33;;;;;;;10.45;7.38;;;;;;;23.21;75.80;99798.19;5108892;28;20075;-29
2023/08/27 03:38:58;;;;;;;11.77;7.30;;;;;;;23.06;75.91;99803.97;5108741;28;20531;-30
2023/08/27 03:41:24;;;;;;;15.00;8.23;;;;;;;23.17;75.55;99799.91;5108587;28;20434;-29
2023/08/27 03:43:49;;;;;;;15.05;8.10;;;;;;;23.46;74.25;99796.72;5108729;28;20039;-29
2023/08/27 03:46:15;;;;;;;14.52;7.95;;;;;;;23.38;74.84;99802.91;5109033;28;20020;-29
2023/08/27 03:48:40;;;;;;;12.10;8.00;;;;;;;23.34;75.86;99788.31;5108958;28;20100;-29
2023/08/27 03:51:06;;;;;;;12.27;7.85;;;;;;;23.47;73.37;99789.34;5108883;28;20033;-31
2023/08/27 03:53:32;;;;;;;11.90;7.82;;;;;;;23.52;73.70;99800.13;5108398;28;20504;-31
2023/08/27 03:56:02;;;;;;;12.77;8.07;;;;;;;23.56;74.14;99783.94;5108242;28;20023;-30
2023/08/27 03:58:28;;;;;;;14.48;8.40;;;;;;;23.54;74.43;99786.19;5108648;28;20037;-29
2023/08/27 04:00:53;;;;;;;16.45;8.45;;;;;;;23.64;72.18;99788.66;5108391;28;20423;-32
2023/08/27 04:03:24;;;;;;;18.13;8.55;;;;;;;23.54;72.13;99780.72;5108649;28;20039;-33
2023/08/27 04:05:49;;;;;;;11.88;8.23;;;;;;;23.63;73.63;99774.22;5108650;28;20042;-29
2023/08/27 04:08:18;;;;;;;13.07;7.47;;;;;;;23.61;74.35;99786.53;5108329;28;20431;-29
2023/08/27 04:10:50;;;;;;;18.27;9.45;;;;;;;23.96;73.33;99787.53;5108487;28;20065;-31
2023/08/27 04:13:18;;;;;;;13.05;8.07;;;;;;;23.83;72.32;99777.56;5107682;28;20039;-31
2023/08/27 04:15:47;;;;;;;19.15;9.05;;;;;;;23.43;74.44;99780.22;5108422;27;20024;-29
2023/08/27 04:18:13;;;;;;;14.73;9.13;;;;;;;23.53;75.01;99800.91;5108276;28;20164;-29
2023/08/27 04:20:38;;;;;;;13.10;8.35;;;;;;;23.54;73.41;99800.63;5108208;28;20045;-29
2023/08/27 04:23:06;;;;;;;17.63;8.15;;;;;;;23.77;73.44;99797.88;5107406;28;20118;-29
2023/08/27 04:25:32;;;;;;;16.40;7.97;;;;;;;23.80;72.66;99803.50;5107899;28;20027;-29
2023/08/27 04:27:57;;;;;;;17.52;8.48;;;;;;;23.97;70.62;99799.25;5107347;28;20026;-31
2023/08/27 04:30:23;;;;;;;151.25;16.90;;;;;;;23.88;70.50;99796.47;5106496;27;20027;-29
2023/08/27 04:32:49;;;;;;;28.00;9.75;;;;;;;23.98;71.41;99803.56;5107867;28;20028;-28
2023/08/27 04:35:17;;;;;;;17.40;9.50;;;;;;;23.97;70.56;99821.81;5107238;28;20032;-29
2023/08/27 04:37:43;;;;;;;15.52;9.57;;;;;;;23.96;69.85;99808.50;5107901;28;20110;-28
2023/08/27 04:40:09;;;;;;;13.23;8.02;;;;;;;23.91;71.37;99823.06;5107695;28;20032;-28
2023/08/27 04:42:34;;;;;;;15.43;8.68;;;;;;;23.90;72.18;99820.66;5106954;28;20027;-29
2023/08/27 04:45:00;;;;;;;15.85;8.93;;;;;;;24.09;71.98;99813.06;5107558;28;20568;-29
2023/08/27 04:47:27;;;;;;;14.65;11.07;;;;;;;24.02;71.56;99827.13;5107276;28;20044;-28
2023/08/27 04:49:53;;;;;;;16.02;10.75;;;;;;;23.93;72.02;99830.94;5107431;28;20027;-29
2023/08/27 04:52:18;;;;;;;13.38;9.00;;;;;;;24.04;71.26;99833.06;5107188;28;20032;-28
2023/08/27 04:54:43;;;;;;;13.25;8.63;;;;;;;24.16;70.50;99827.00;5107458;28;20038;-31
2023/08/27 04:57:09;;;;;;;9.70;8.32;;;;;;;24.31;70.15;99827.69;5107090;28;20476;-29
2023/08/27 04:59:34;;;;;;;11.02;8.30;;;;;;;24.28;70.04;99826.41;5107199;28;20111;-29
2023/08/27 05:02:00;;;;;;;12.52;7.97;;;;;;;24.49;69.25;99825.81;5107128;28;20389;-29
2023/08/27 05:04:29;;;;;;;12.68;8.88;;;;;;;24.31;68.96;99809.41;5107196;28;20111;-29
2023/08/27 05:06:55;;;;;;;11.82;8.90;;;;;;;24.62;68.92;99833.91;5107143;28;20015;-28
2023/08/27 05:09:20;;;;;;;15.68;10.98;;;;;;;24.40;69.26;99823.88;5106830;28;20028;-26
2023/08/27 05:11:46;;;;;;;16.13;13.30;;;;;;;24.39;68.72;99822.25;5106666;28;20027;-30
2023/08/27 05:14:11;;;;;;;17.48;12.50;;;;;;;24.51;69.07;99834.50;5107225;28;20019;-28
2023/08/27 05:16:37;;;;;;;15.02;10.45;;;;;;;24.44;68.97;99824.06;5107236;28;20031;-28
2023/08/27 05:19:02;;;;;;;17.10;9.55;;;;;;;24.53;69.08;99833.06;5106452;28;20032;-29
2023/08/27 05:21:27;;;;;;;13.75;8.70;;;;;;;24.58;69.38;99822.03;5106842;28;20407;-29
2023/08/27 05:23:53;;;;;;;11.13;8.45;;;;;;;24.77;69.55;99838.06;5106294;28;20027;-30
2023/08/27 05:26:18;;;;;;;12.00;8.27;;;;;;;24.67;70.13;99832.94;5106337;28;20024;-29
2023/08/27 05:28:43;;;;;;;11.70;8.85;;;;;;;24.57;71.02;99833.25;5106627;28;20023;-32
2023/08/27 05:31:09;;;;;;;11.35;9.10;;;;;;;24.76;70.57;99824.75;5107009;28;20023;-29
2023/08/27 05:33:37;;;;;;;15.32;9.00;;;;;;;24.69;72.35;99827.16;5106046;28;20320;-29
2023/08/27 05:36:02;;;;;;;;;;;;;;;24.71;72.55;99827.66;5107249;28;20509;-29
2023/08/27 05:38:27;;;;;;;14.80;9.73;;;;;;;24.68;72.02;99831.78;5106472;28;19912;-28
2023/08/27 05:40:55;;;;;;;15.93;10.10;;;;;;;24.83;71.29;99830.56;5106314;28;20464;-30
2023/08/27 05:43:20;;;;;;;;;;;;;;;24.88;70.47;99841.28;5106386;28;20100;-28
2023/08/27 05:45:48;;;;;;;15.30;9.77;;;;;;;24.83;71.06;99836.78;5106045;28;19912;-30
2023/08/27 05:48:13;;;;;;;;;;;;;;;25.29;69.33;99841.94;5106861;28;20043;-29
2023/08/27 05:50:39;;;;;;;14.00;10.07;;;;;;;25.36;68.25;99842.28;5106299;28;19953;-30
2023/08/27 05:53:05;;;;;;;15.57;10.77;;;;;;;25.71;67.71;99840.25;5106381;28;20034;-31
2023/08/27 05:55:31;;;;;;;13.00;9.35;;;;;;;25.73;67.90;99840.75;5106260;28;20545;-29
2023/08/27 05:57:56;;;;;;;16.55;10.10;;;;;;;25.56;68.98;99829.84;5106299;28;20027;-29
2023/08/27 06:00:21;;;;;;;11.88;9.07;;;;;;;25.40;69.83;99830.38;5106363;28;20491;-29
2023/08/27 06:02:47;;;;;;;14.73;9.52;;;;;;;25.48;69.47;99839.69;5106442;28;20046;-29
2023/08/27 06:05:13;;;;;;;13.65;8.43;;;;;;;25.78;68.81;99831.56;5106522;28;20020;-29
2023/08/27 06:07:39;;;;;;;12.77;9.27;;;;;;;25.94;68.04;99829.91;5106094;28;20024;-28
2023/08/27 06:10:05;;;;;;;12.85;9.15;;;;;;;26.06;67.65;99821.84;5106301;28;20038;-29
2023/08/27 06:12:33;;;;;;;12.25;9.07;;;;;;;25.80;68.82;99826.56;5105770;28;20126;-30
2023/08/27 06:14:58;;;;;;;;;;;;;;;25.64;69.81;99824.38;5106624;28;20034;-29
2023/08/27 06:17:24;;;;;;;14.45;8.40;;;;;;;25.88;69.45;99833.94;5105886;27;19911;-29
2023/08/27 06:19:50;;;;;;;10.93;8.35;;;;;;;26.21;67.80;99836.06;5106027;28;20023;-30
2023/08/27 06:22:16;;;;;;;12.38;8.10;;;;;;;26.11;68.06;99828.25;5106233;28;20020;-29
2023/08/27 06:24:42;;;;;;;11.68;7.88;;;;;;;26.01;68.71;99823.94;5106113;28;20412;-29
2023/08/27 06:27:07;;;;;;;10.85;7.03;;;;;;;26.08;68.03;99826.19;5105939;28;20511;-29
2023/08/27 06:29:33;;;;;;;17.05;7.75;;;;;;;26.04;67.30;99826.03;5106059;28;20020;-29
2023/08/27 06:31:59;;;;;;;11.70;7.63;;;;;;;26.48;66.48;99820.31;5105969;28;20102;-29
2023/08/27 06:34:24;;;;;;;11.70;7.35;;;;;;;26.65;63.32;99826.50;5105647;28;20027;-29
2023/08/27 06:36:49;;;;;;;13.07;7.05;;;;;;;26.48;66.04;99817.59;5105757;28;20462;-29
2023/08/27 06:39:15;;;;;;;10.75;6.80;;;;;;;26.70;63.87;99817.28;5106230;28;20027;-31
2023/08/27 06:41:41;;;;;;;10.55;6.53;;;;;;;26.76;61.69;99826.91;5105422;28;20027;-30
2023/08/27 06:44:06;;;;;;;9.57;6.40;;;;;;;27.02;61.08;99820.44;5105848;28;20077;-31
2023/08/27 06:46:32;;;;;;;10.05;6.20;;;;;;;27.39;59.72;99826.06;5105771;28;20042;-29
2023/08/27 06:48:57;;;;;;;9.50;6.18;;;;;;;27.37;59.92;99822.88;5105359;28;20096;-32
2023/08/27 06:51:23;;;;;;;9.38;5.45;;;;;;;27.49;56.64;99830.31;5104871;28;20024;-29
2023/08/27 06:53:48;;;;;;;7.40;5.25;;;;;;;27.71;55.53;99831.88;5106690;28;20032;-28
2023/08/27 06:56:14;;;;;;;8.98;6.15;;;;;;;27.55;57.29;99826.22;5109853;28;20024;-28
2023/08/27 06:58:39;;;;;;;9.00;5.70;;;;;;;27.78;56.21;99832.09;5109972;28;20042;-29
2023/08/27 07:01:05;;;;;;;9.90;5.90;;;;;;;27.63;56.65;99815.19;5109693;28;20480;-29
2023/08/27 07:03:31;;;;;;;11.52;5.63;;;;;;;27.74;56.47;99821.00;5109959;27;20805;-30
2023/08/27 07:05:56;;;;;;;13.65;6.00;;;;;;;28.05;54.70;99820.50;5109518;28;20024;-29
2023/08/27 07:08:24;;;;;;;12.63;6.53;;;;;;;28.40;53.81;99820.03;5108806;28;20810;-28
2023/08/27 07:10:49;;;;;;;9.40;6.50;;;;;;;28.05;53.55;99820.50;5109563;28;20074;-29
2023/08/27 07:13:15;;;;;;;12.57;5.55;;;;;;;28.29;53.54;99824.38;5109277;28;20028;-30
2023/08/27 07:15:40;;;;;;;10.85;6.25;;;;;;;28.31;53.49;99821.28;5109378;28;20085;-30
2023/08/27 07:18:11;;;;;;;9.02;5.65;;;;;;;28.57;51.49;99829.19;5109137;28;20114;-29
2023/08/27 07:20:36;;;;;;;12.18;6.80;;;;;;;28.64;51.34;99823.88;5109140;28;20015;-29
2023/08/27 07:23:02;;;;;;;8.95;5.90;;;;;;;28.84;50.28;99822.91;5109136;28;20116;-29
2023/08/27 07:25:28;;;;;;;9.75;5.72;;;;;;;28.91;49.07;99827.84;5109040;28;20027;-29
2023/08/27 07:27:53;;;;;;;7.68;5.43;;;;;;;28.48;50.53;99803.78;5109329;28;20023;-31
2023/08/27 07:30:19;;;;;;;10.07;5.85;;;;;;;28.87;50.09;99821.41;5108998;28;20363;-30
2023/08/27 07:32:44;;;;;;;11.23;5.47;;;;;;;29.13;48.42;99810.03;5109224;28;20023;-29
2023/08/27 07:35:09;;;;;;;8.18;5.15;;;;;;;29.06;48.42;99815.31;5107824;28;20088;-29
2023/08/27 07:37:35;;;;;;;9.63;5.22;;;;;;;28.78;48.47;99802.34;5109190;28;20031;-33
2023/08/27 07:40:03;;;;;;;9.10;5.20;;;;;;;29.00;48.89;99811.22;5109150;28;20043;-30
2023/08/27 07:42:28;;;;;;;7.60;4.97;;;;;;;29.03;47.85;99802.25;5108839;28;20118;-29
2023/08/27 07:44:54;;;;;;;9.15;5.40;;;;;;;29.03;49.30;99797.59;5109176;27;20119;-29
2023/08/27 07:47:19;;;;;;;7.53;5.32;;;;;;;29.34;47.55;99800.78;5108436;28;20435;-30
2023/08/27 07:49:44;;;;;;;9.07;5.60;;;;;;;29.63;46.78;99802.34;5108845;28;20031;-29
2023/08/27 07:52:10;;;;;;;10.40;5.60;;;;;;;29.56;46.13;99793.88;5108490;28;20069;-30
2023/08/27 07:54:35;;;;;;;7.53;5.22;;;;;;;29.89;44.19;99798.25;5108733;28;20027;-29
2023/08/27 07:57:01;;;;;;;8.38;5.10;;;;;;;29.57;44.68;99799.03;5108471;28;20027;-29
2023/08/27 07:59:26;;;;;;;9.20;5.25;;;;;;;29.70;45.69;99802.50;5108678;28;20027;-29
2023/08/27 08:01:51;;;;;;;7.53;4.80;;;;;;;29.41;46.27;99799.03;5107940;28;20438;-32
2023/08/27 08:04:17;;;;;;;8.48;5.35;;;;;;;29.96;45.66;99801.19;5108738;28;20026;-30
2023/08/27 08:06:43;;;;;;;9.68;5.80;;;;;;;30.02;45.90;99803.31;5107741;28;20024;-30
2023/08/27 08:09:08;;;;;;;9.45;6.00;;;;;;;30.14;44.10;99796.09;5108642;28;20498;-30
2023/08/27 08:11:34;;;;;;;7.45;5.22;;;;;;;30.11;43.02;99788.59;5108139;28;20536;-31
2023/08/27 08:13:59;;;;;;;8.07;5.60;;;;;;;30.32;42.65;99789.09;5107952;28;20020;-31
2023/08/27 08:16:25;;;;;;;7.75;5.60;;;;;;;30.28;44.12;99784.63;5108270;27;20031;-29
2023/08/27 08:18:50;;;;;;;10.13;5.38;;;;;;;30.26;44.16;99785.00;5108136;28;20473;-29
2023/08/27 08:21:17;;;;;;;9.93;5.88;;;;;;;30.14;43.73;99779.59;5108466;28;20024;-30
2023/08/27 08:23:43;;;;;;;8.85;5.30;;;;;;;30.17;44.43;99784.41;5108198;28;20028;-29
2023/08/27 08:26:09;;;;;;;7.20;5.63;;;;;;;30.19;44.26;99790.34;5108069;28;20028;-29
2023/08/27 08:28:34;;;;;;;8.38;5.93;;;;;;;30.49;42.17;99787.91;5107978;28;20027;-30
2023/08/27 08:31:00;;;;;;;7.60;5.47;;;;;;;30.86;42.45;99778.44;5107993;28;20409;-32
2023/08/27 08:33:25;;;;;;;8.38;5.47;;;;;;;30.57;42.81;99772.34;5107801;28;20028;-29
2023/08/27 08:35:50;;;;;;;8.23;5.40;;;;;;;30.85;42.15;99774.84;5107227;28;20036;-29
2023/08/27 08:38:16;;;;;;;8.43;5.15;;;;;;;31.31;40.60;99776.94;5108023;28;20032;-29
2023/08/27 08:40:48;;;;;;;7.10;4.53;;;;;;;31.50;39.62;99763.13;5107470;28;20116;-29
2023/08/27 08:43:44;;;;;;;10.65;5.30;;;;;;;31.59;39.42;99777.47;5107374;28;20020;-30
2023/08/27 08:46:13;;;;;;;10.18;5.00;;;;;;;31.60;39.19;99773.53;5106052;28;20538;-29
2023/08/27 08:48:41;;;;;;;10.15;4.53;;;;;;;31.79;39.49;99764.41;5107349;28;20062;-29
2023/08/27 08:51:08;;;;;;;6.40;4.55;;;;;;;31.82;40.08;99769.16;5107430;28;20027;-30
2023/08/27 08:53:42;;;;;;;7.25;4.75;;;;;;;31.63;38.65;99755.50;5104444;28;20019;-28
2023/08/27 08:56:18;;;;;;;9.25;4.78;;;;;;;31.52;38.02;99754.50;5107140;28;20427;-31
2023/08/27 08:58:54;;;;;;;8.20;4.60;;;;;;;31.63;38.96;99764.53;5106089;28;20028;-29
2023/08/27 09:01:20;;;;;;;5.93;4.47;;;;;;;31.30;36.29;99753.31;5108065;28;20016;-30
2023/08/27 09:03:48;;;;;;;7.82;4.55;;;;;;;31.76;35.63;99761.59;5107744;28;20043;-31
2023/08/27 09:06:17;;;;;;;7.15;4.47;;;;;;;31.91;34.44;99768.91;5107265;28;20169;-31
2023/08/27 09:08:44;;;;;;;7.30;4.85;;;;;;;32.41;35.34;99755.88;5107737;28;20026;-32
2023/08/27 09:11:12;;;;;;;8.55;4.45;;;;;;;32.43;33.28;99758.25;5107177;28;20050;-29
2023/08/27 09:13:38;;;;;;;7.55;4.53;;;;;;;32.60;32.36;99748.63;5106901;28;20584;-29
2023/08/27 09:16:04;;;;;;;9.52;4.50;;;;;;;32.44;32.63;99751.56;5107125;28;20142;-29
2023/08/27 09:18:30;;;;;;;5.93;4.27;;;;;;;32.61;32.21;99741.94;5106249;28;20517;-29
2023/08/27 09:20:58;;;;;;;7.72;4.25;;;;;;;32.46;34.31;99731.88;5107322;28;20024;-29
2023/08/27 09:23:28;;;;;;;6.95;4.35;;;;;;;32.61;33.10;99733.66;5106689;28;20042;-29
2023/08/27 09:25:59;;;;;;;6.35;4.30;;;;;;;32.80;33.17;99733.50;5107051;28;20031;-29
2023/08/27 09:28:27;;;;;;;6.28;4.47;;;;;;;32.98;34.08;99727.38;5106844;28;20023;-28
2023/08/27 09:30:52;;;;;;;8.85;4.53;;;;;;;32.78;33.52;99732.28;5106534;28;20019;-29
2023/08/27 09:33:18;;;;;;;8.70;4.20;;;;;;;32.17;34.50;99728.72;5107173;28;20023;-29
2023/08/27 09:35:43;;;;;;;8.80;4.82;;;;;;;32.32;33.98;99726.94;5106834;28;20024;-29
2023/08/27 09:38:12;;;;;;;7.85;5.07;;;;;;;32.57;32.41;99708.78;5106878;28;20077;-30
2023/08/27 09:40:37;;;;;;;7.82;4.28;;;;;;;32.88;34.05;99717.00;5106546;28;20031;-29
2023/08/27 09:43:14;;;;;;;7.43;4.10;;;;;;;33.35;32.63;99723.81;5106231;28;20042;-29
2023/08/27 09:45:39;;;;;;;6.23;4.10;;;;;;;33.36;33.85;99715.09;5106688;28;20016;-31
2023/08/27 09:48:05;;;;;;;6.20;4.18;;;;;;;33.67;32.27;99717.75;5106156;28;20404;-29
2023/08/27 09:50:31;;;;;;;6.68;4.20;;;;;;;33.77;34.08;99711.50;5106769;28;20589;-29
2023/08/27 09:53:14;;;;;;;7.22;4.20;;;;;;;33.45;35.02;99705.69;5106702;28;20469;-29
2023/08/27 09:55:40;;;;;;;13.55;5.00;;;;;;;33.23;34.97;99709.09;5106747;28;20024;-31
2023/08/27 09:58:06;;;;;;;5.88;3.95;;;;;;;33.59;35.36;99706.63;5105976;28;20044;-29
2023/08/27 10:00:33;;;;;;;6.75;3.70;;;;;;;33.93;33.91;99703.69;5106327;28;20621;-29
2023/08/27 10:03:01;;;;;;;6.53;4.10;;;;;;;33.68;35.21;99698.00;5106149;28;20066;-29
2023/08/27 10:05:33;;;;;;;5.95;4.05;;;;;;;33.70;35.40;99697.63;5106044;28;20035;-31
2023/08/27 10:08:04;;;;;;;7.28;4.13;;;;;;;33.46;34.70;99688.72;5106107;28;20114;-32
2023/08/27 10:10:36;;;;;;;8.15;4.43;;;;;;;33.80;33.77;99689.41;5106086;28;20114;-29
2023/08/27 10:13:05;;;;;;;6.75;4.15;;;;;;;33.96;33.66;99688.28;5105880;28;20035;-30
2023/08/27 10:15:33;;;;;;;6.53;3.75;;;;;;;34.14;32.58;99685.66;5106017;28;20028;-29
2023/08/27 10:17:59;;;;;;;7.03;4.00;;;;;;;34.10;33.98;99679.28;5106050;28;20031;-32
2023/08/27 10:20:28;;;;;;;6.25;4.03;;;;;;;33.67;34.77;99684.56;5106330;28;20080;-30
2023/08/27 10:22:54;;;;;;;7.30;4.13;;;;;;;33.99;34.61;99680.03;5106093;28;20026;-28
2023/08/27 10:25:21;;;;;;;5.83;3.93;;;;;;;34.29;33.60;99675.47;5104727;28;20366;-27
2023/08/27 10:27:48;;;;;;;7.47;3.95;;;;;;;33.90;33.75;99660.22;5105926;28;20106;-31
2023/08/27 10:30:16;;;;;;;7.30;3.92;;;;;;;34.33;33.28;99677.06;5105795;28;20027;-30
2023/08/27 10:32:41;;;;;;;;;;;;;;;34.40;32.46;99671.53;5106168;28;20028;-29
2023/08/27 10:35:09;;;;;;;6.70;3.93;;;;;;;34.61;32.15;99675.53;5105917;28;19916;-29
2023/08/27 10:37:38;;;;;;;7.13;4.38;;;;;;;35.19;32.22;99680.03;5105912;28;20033;-29
2023/08/27 10:40:08;;;;;;;6.38;3.63;;;;;;;35.25;30.62;99657.47;5105499;28;20098;-30
2023/08/27 10:42:36;;;;;;;5.35;3.45;;;;;;;34.99;31.98;99657.44;5105769;28;20138;-31
2023/08/27 10:45:12;;;;;;;7.20;3.78;;;;;;;34.89;31.75;99658.22;5105198;28;20036;-29
2023/08/27 10:47:37;;;;;;;5.88;3.53;;;;;;;34.28;33.05;99655.28;5104848;28;20067;-29
2023/08/27 10:50:04;;;;;;;5.15;3.00;;;;;;;34.76;32.53;99643.97;5105458;28;20035;-30
2023/08/27 10:52:48;;;;;;;6.25;3.90;;;;;;;34.75;30.26;99647.13;5105467;28;20039;-29
2023/08/27 10:55:16;;;;;;;7.15;3.80;;;;;;;34.78;29.64;99646.34;5102192;28;20133;-29
2023/08/27 10:57:42;;;;;;;6.97;3.60;;;;;;;34.70;29.73;99644.75;5105048;28;20038;-29
2023/08/27 11:00:12;;;;;;;7.38;3.22;;;;;;;35.20;28.88;99648.34;5105775;28;20015;-29
2023/08/27 11:03:13;;;;;;;6.75;3.20;;;;;;;35.24;27.62;99644.81;5105601;28;20038;-29
2023/08/27 11:05:38;;;;;;;5.18;3.60;;;;;;;35.27;29.02;99635.69;5105438;28;20040;-30
2023/08/27 11:08:14;;;;;;;6.28;3.92;;;;;;;35.19;28.29;99637.69;5105602;28;20039;-30
2023/08/27 11:10:40;;;;;;;4.77;3.33;;;;;;;35.53;27.87;99628.91;5105643;28;20016;-30
2023/08/27 11:13:05;;;;;;;5.95;3.65;;;;;;;35.76;25.25;99636.84;5105663;28;20415;-29
2023/08/27 11:15:34;;;;;;;8.77;3.35;;;;;;;36.35;23.98;99628.69;5105482;28;20035;-31
2023/08/27 11:18:00;;;;;;;8.68;3.60;;;;;;;35.95;23.39;99632.81;5105269;28;20020;-31
2023/08/27 11:20:27;;;;;;;19.55;4.47;;;;;;;36.62;24.88;99608.69;5105539;28;20029;-31
2023/08/27 11:23:00;;;;;;;6.40;3.50;;;;;;;37.04;25.84;99620.69;5105032;28;20028;-30
2023/08/27 11:25:27;;;;;;;17.60;13.27;;;;;;;37.03;22.53;99619.13;5105022;28;20099;-29
2023/08/27 11:27:54;;;;;;;;;;;;;;;36.53;21.79;99620.22;5105643;28;20510;-29